sensor_id;sensor_type;location;lat;lon;timestamp;temperature;humidity
23579;DHT22;11967;50.852;4.400;2022-09-12T00:00:46;21.30;99.90
23579;DHT22;11967;50.852;4.400;2022-09-12T00:03:11;21.30;99.90
23579;DHT22;11967;50.852;4.400;2022-09-12T00:05:45;21.30;99.90
23579;DHT22;11967;50.852;4.400;2022-09-12T00:08:11;21.30;99.90
23579;DHT22;11967;50.852;4.400;2022-09-12T00:10:40;21.30;99.90
23579;DHT22;11967;50.852;4.400;2022-09-12T00:13:07;21.20;99.90
23579;DHT22;11967;50.852;4.400;2022-09-12T00:15:40;21.10;99.90
23579;DHT22;11967;50.852;4.400;2022-09-12T00:18:09;21.10;99.90
23579;DHT22;11967;50.852;4.400;2022-09-12T00:20:41;21.10;99.90
23579;DHT22;11967;50.852;4.400;2022-09-12T00:23:07;21.10;99.90
23579;DHT22;11967;50.852;4.400;2022-09-12T00:25:32;21.10;99.90
23579;DHT22;11967;50.852;4.400;2022-09-12T00:27:58;21.10;99.90
23579;DHT22;11967;50.852;4.400;2022-09-12T00:30:24;21.10;99.90
23579;DHT22;11967;50.852;4.400;2022-09-12T00:32:49;21.10;99.90
23579;DHT22;11967;50.852;4.400;2022-09-12T00:35:15;21.10;99.90
23579;DHT22;11967;50.852;4.400;2022-09-12T00:37:41;21.10;99.90
23579;DHT22;11967;50.852;4.400;2022-09-12T00:40:07;21.20;99.90
23579;DHT22;11967;50.852;4.400;2022-09-12T00:42:32;21.00;99.90
23579;DHT22;11967;50.852;4.400;2022-09-12T00:44:58;21.00;99.90
23579;DHT22;11967;50.852;4.400;2022-09-12T00:47:26;21.00;99.90
23579;DHT22;11967;50.852;4.400;2022-09-12T00:49:56;21.00;99.90
23579;DHT22;11967;50.852;4.400;2022-09-12T00:55:00;21.00;99.90
23579;DHT22;11967;50.852;4.400;2022-09-12T00:57:32;21.00;99.90
23579;DHT22;11967;50.852;4.400;2022-09-12T01:00:06;20.90;99.90
23579;DHT22;11967;50.852;4.400;2022-09-12T01:02:54;21.00;99.90
23579;DHT22;11967;50.852;4.400;2022-09-12T01:05:22;21.00;99.90
23579;DHT22;11967;50.852;4.400;2022-09-12T01:07:49;21.00;99.90
23579;DHT22;11967;50.852;4.400;2022-09-12T01:10:16;21.00;99.90
23579;DHT22;11967;50.852;4.400;2022-09-12T01:12:42;21.00;99.90
23579;DHT22;11967;50.852;4.400;2022-09-12T01:15:09;21.00;99.90
23579;DHT22;11967;50.852;4.400;2022-09-12T01:18:30;21.00;99.90
23579;DHT22;11967;50.852;4.400;2022-09-12T01:26:56;20.90;99.90
23579;DHT22;11967;50.852;4.400;2022-09-12T01:30:02;20.90;99.90
23579;DHT22;11967;50.852;4.400;2022-09-12T01:35:13;20.90;99.90
23579;DHT22;11967;50.852;4.400;2022-09-12T01:38:16;20.90;99.90
23579;DHT22;11967;50.852;4.400;2022-09-12T01:41:01;20.90;99.90
23579;DHT22;11967;50.852;4.400;2022-09-12T01:46:22;20.80;99.90
23579;DHT22;11967;50.852;4.400;2022-09-12T01:48:56;20.80;99.90
23579;DHT22;11967;50.852;4.400;2022-09-12T01:51:29;20.90;99.90
23579;DHT22;11967;50.852;4.400;2022-09-12T01:54:26;20.80;99.90
23579;DHT22;11967;50.852;4.400;2022-09-12T01:56:52;20.80;99.90
23579;DHT22;11967;50.852;4.400;2022-09-12T01:59:40;20.80;99.90
23579;DHT22;11967;50.852;4.400;2022-09-12T02:02:10;20.80;99.90
23579;DHT22;11967;50.852;4.400;2022-09-12T02:04:45;20.70;99.90
23579;DHT22;11967;50.852;4.400;2022-09-12T02:07:27;20.80;99.90
23579;DHT22;11967;50.852;4.400;2022-09-12T02:10:03;20.70;99.90
23579;DHT22;11967;50.852;4.400;2022-09-12T02:12:38;20.70;99.90
23579;DHT22;11967;50.852;4.400;2022-09-12T02:15:07;20.60;99.90
23579;DHT22;11967;50.852;4.400;2022-09-12T02:17:37;20.60;99.90
23579;DHT22;11967;50.852;4.400;2022-09-12T02:20:13;20.60;99.90
23579;DHT22;11967;50.852;4.400;2022-09-12T02:22:41;20.50;99.90
23579;DHT22;11967;50.852;4.400;2022-09-12T02:25:10;20.50;99.90
23579;DHT22;11967;50.852;4.400;2022-09-12T02:27:41;20.40;99.90
23579;DHT22;11967;50.852;4.400;2022-09-12T02:30:09;20.40;99.90
23579;DHT22;11967;50.852;4.400;2022-09-12T02:35:42;20.40;99.90
23579;DHT22;11967;50.852;4.400;2022-09-12T02:38:19;20.30;99.90
23579;DHT22;11967;50.852;4.400;2022-09-12T02:40:48;20.30;99.90
23579;DHT22;11967;50.852;4.400;2022-09-12T02:43:14;20.30;99.90
23579;DHT22;11967;50.852;4.400;2022-09-12T02:45:40;20.40;99.90
23579;DHT22;11967;50.852;4.400;2022-09-12T02:48:27;20.40;99.90
23579;DHT22;11967;50.852;4.400;2022-09-12T02:50:55;20.40;99.90
23579;DHT22;11967;50.852;4.400;2022-09-12T02:53:21;20.40;99.90
23579;DHT22;11967;50.852;4.400;2022-09-12T02:55:47;20.30;99.90
23579;DHT22;11967;50.852;4.400;2022-09-12T02:58:19;20.40;99.90
23579;DHT22;11967;50.852;4.400;2022-09-12T03:00:50;20.30;99.90
23579;DHT22;11967;50.852;4.400;2022-09-12T03:06:20;20.30;99.90
23579;DHT22;11967;50.852;4.400;2022-09-12T03:09:01;20.20;99.90
23579;DHT22;11967;50.852;4.400;2022-09-12T03:19:51;20.10;99.90
23579;DHT22;11967;50.852;4.400;2022-09-12T03:22:30;20.10;99.90
23579;DHT22;11967;50.852;4.400;2022-09-12T03:25:28;20.10;99.90
23579;DHT22;11967;50.852;4.400;2022-09-12T03:30:21;20.10;99.90
23579;DHT22;11967;50.852;4.400;2022-09-12T03:32:50;20.20;99.90
23579;DHT22;11967;50.852;4.400;2022-09-12T03:35:18;20.20;99.90
23579;DHT22;11967;50.852;4.400;2022-09-12T03:37:45;20.20;99.90
23579;DHT22;11967;50.852;4.400;2022-09-12T03:40:12;20.10;99.90
23579;DHT22;11967;50.852;4.400;2022-09-12T03:42:38;20.20;99.90
23579;DHT22;11967;50.852;4.400;2022-09-12T03:45:05;20.20;99.90
23579;DHT22;11967;50.852;4.400;2022-09-12T03:47:31;20.10;99.90
23579;DHT22;11967;50.852;4.400;2022-09-12T03:49:56;20.20;99.90
23579;DHT22;11967;50.852;4.400;2022-09-12T03:52:22;20.20;99.90
23579;DHT22;11967;50.852;4.400;2022-09-12T03:54:48;20.20;99.90
23579;DHT22;11967;50.852;4.400;2022-09-12T03:57:14;20.10;99.90
23579;DHT22;11967;50.852;4.400;2022-09-12T03:59:39;20.10;99.90
23579;DHT22;11967;50.852;4.400;2022-09-12T04:02:05;20.10;99.90
23579;DHT22;11967;50.852;4.400;2022-09-12T04:04:31;20.10;99.90
23579;DHT22;11967;50.852;4.400;2022-09-12T04:06:56;20.00;99.90
23579;DHT22;11967;50.852;4.400;2022-09-12T04:09:22;20.00;99.90
23579;DHT22;11967;50.852;4.400;2022-09-12T04:11:48;19.90;99.90
23579;DHT22;11967;50.852;4.400;2022-09-12T04:14:13;19.90;99.90
23579;DHT22;11967;50.852;4.400;2022-09-12T04:16:39;19.90;99.90
23579;DHT22;11967;50.852;4.400;2022-09-12T04:19:05;19.90;99.90
23579;DHT22;11967;50.852;4.400;2022-09-12T04:21:30;19.90;99.90
23579;DHT22;11967;50.852;4.400;2022-09-12T04:23:56;20.00;99.90
23579;DHT22;11967;50.852;4.400;2022-09-12T04:26:22;19.90;99.90
23579;DHT22;11967;50.852;4.400;2022-09-12T04:28:51;20.00;99.90
23579;DHT22;11967;50.852;4.400;2022-09-12T04:31:18;20.00;99.90
23579;DHT22;11967;50.852;4.400;2022-09-12T04:33:45;20.00;99.90
23579;DHT22;11967;50.852;4.400;2022-09-12T04:36:14;20.00;99.90
23579;DHT22;11967;50.852;4.400;2022-09-12T04:38:44;19.90;99.90
23579;DHT22;11967;50.852;4.400;2022-09-12T04:41:16;19.80;99.90
23579;DHT22;11967;50.852;4.400;2022-09-12T04:43:43;19.80;99.90
23579;DHT22;11967;50.852;4.400;2022-09-12T04:46:12;19.70;99.90
23579;DHT22;11967;50.852;4.400;2022-09-12T04:48:38;19.70;99.90
23579;DHT22;11967;50.852;4.400;2022-09-12T04:51:11;19.70;99.90
23579;DHT22;11967;50.852;4.400;2022-09-12T04:53:38;19.70;99.90
23579;DHT22;11967;50.852;4.400;2022-09-12T04:56:06;19.60;99.90
23579;DHT22;11967;50.852;4.400;2022-09-12T04:58:32;19.60;99.90
23579;DHT22;11967;50.852;4.400;2022-09-12T05:01:13;19.60;99.90
23579;DHT22;11967;50.852;4.400;2022-09-12T05:03:40;19.50;99.90
23579;DHT22;11967;50.852;4.400;2022-09-12T05:06:09;19.50;99.90
23579;DHT22;11967;50.852;4.400;2022-09-12T05:08:35;19.50;99.90
23579;DHT22;11967;50.852;4.400;2022-09-12T05:11:11;19.40;99.90
23579;DHT22;11967;50.852;4.400;2022-09-12T05:13:38;19.40;99.90
23579;DHT22;11967;50.852;4.400;2022-09-12T05:16:05;19.30;99.90
23579;DHT22;11967;50.852;4.400;2022-09-12T05:18:33;19.30;99.90
23579;DHT22;11967;50.852;4.400;2022-09-12T05:21:00;19.30;99.90
23579;DHT22;11967;50.852;4.400;2022-09-12T05:23:27;19.40;99.90
23579;DHT22;11967;50.852;4.400;2022-09-12T05:25:54;19.40;99.90
23579;DHT22;11967;50.852;4.400;2022-09-12T05:28:21;19.40;99.90
23579;DHT22;11967;50.852;4.400;2022-09-12T05:30:47;19.40;99.90
23579;DHT22;11967;50.852;4.400;2022-09-12T05:33:23;19.40;99.90
23579;DHT22;11967;50.852;4.400;2022-09-12T05:35:52;19.40;99.90
23579;DHT22;11967;50.852;4.400;2022-09-12T05:38:18;19.40;99.90
23579;DHT22;11967;50.852;4.400;2022-09-12T05:40:43;19.40;99.90
23579;DHT22;11967;50.852;4.400;2022-09-12T05:43:09;19.30;99.90
23579;DHT22;11967;50.852;4.400;2022-09-12T05:45:37;19.30;99.90
23579;DHT22;11967;50.852;4.400;2022-09-12T05:48:03;19.40;99.90
23579;DHT22;11967;50.852;4.400;2022-09-12T05:50:29;19.40;99.90
23579;DHT22;11967;50.852;4.400;2022-09-12T05:52:56;19.40;99.90
23579;DHT22;11967;50.852;4.400;2022-09-12T05:55:21;19.30;99.90
23579;DHT22;11967;50.852;4.400;2022-09-12T05:57:48;19.30;99.90
23579;DHT22;11967;50.852;4.400;2022-09-12T06:00:15;19.30;99.90
23579;DHT22;11967;50.852;4.400;2022-09-12T06:02:41;19.30;99.90
23579;DHT22;11967;50.852;4.400;2022-09-12T06:05:07;19.30;99.90
23579;DHT22;11967;50.852;4.400;2022-09-12T06:07:33;19.30;99.90
23579;DHT22;11967;50.852;4.400;2022-09-12T06:10:00;19.40;99.90
23579;DHT22;11967;50.852;4.400;2022-09-12T06:12:27;19.30;99.90
23579;DHT22;11967;50.852;4.400;2022-09-12T06:14:54;19.40;99.90
23579;DHT22;11967;50.852;4.400;2022-09-12T06:17:20;19.40;99.90
23579;DHT22;11967;50.852;4.400;2022-09-12T06:19:48;19.40;99.90
23579;DHT22;11967;50.852;4.400;2022-09-12T06:22:15;19.40;99.90
23579;DHT22;11967;50.852;4.400;2022-09-12T06:24:42;19.30;99.90
23579;DHT22;11967;50.852;4.400;2022-09-12T06:27:07;19.30;99.90
23579;DHT22;11967;50.852;4.400;2022-09-12T06:29:33;19.20;99.90
23579;DHT22;11967;50.852;4.400;2022-09-12T06:31:59;19.20;99.90
23579;DHT22;11967;50.852;4.400;2022-09-12T06:34:24;19.30;99.90
23579;DHT22;11967;50.852;4.400;2022-09-12T06:36:52;19.30;99.90
23579;DHT22;11967;50.852;4.400;2022-09-12T06:39:22;19.30;99.90
23579;DHT22;11967;50.852;4.400;2022-09-12T06:41:49;19.30;99.90
23579;DHT22;11967;50.852;4.400;2022-09-12T06:44:19;19.30;99.90
23579;DHT22;11967;50.852;4.400;2022-09-12T06:46:45;19.40;99.90
23579;DHT22;11967;50.852;4.400;2022-09-12T06:49:12;19.40;99.90
23579;DHT22;11967;50.852;4.400;2022-09-12T06:51:37;19.40;99.90
23579;DHT22;11967;50.852;4.400;2022-09-12T06:54:04;19.40;99.90
23579;DHT22;11967;50.852;4.400;2022-09-12T06:56:30;19.40;99.90
23579;DHT22;11967;50.852;4.400;2022-09-12T06:58:57;19.40;99.90
23579;DHT22;11967;50.852;4.400;2022-09-12T07:01:27;19.40;99.90
23579;DHT22;11967;50.852;4.400;2022-09-12T07:03:55;19.40;99.90
23579;DHT22;11967;50.852;4.400;2022-09-12T07:06:23;19.40;99.90
23579;DHT22;11967;50.852;4.400;2022-09-12T07:08:49;19.50;99.90
23579;DHT22;11967;50.852;4.400;2022-09-12T07:11:21;19.60;99.90
23579;DHT22;11967;50.852;4.400;2022-09-12T07:13:48;19.60;99.90
23579;DHT22;11967;50.852;4.400;2022-09-12T07:16:15;19.70;99.90
23579;DHT22;11967;50.852;4.400;2022-09-12T07:18:41;19.70;99.90
23579;DHT22;11967;50.852;4.400;2022-09-12T07:21:11;19.70;99.90
23579;DHT22;11967;50.852;4.400;2022-09-12T07:23:37;19.70;99.90
23579;DHT22;11967;50.852;4.400;2022-09-12T07:26:04;19.70;99.90
23579;DHT22;11967;50.852;4.400;2022-09-12T07:28:32;19.70;99.90
23579;DHT22;11967;50.852;4.400;2022-09-12T07:31:13;19.80;99.90
23579;DHT22;11967;50.852;4.400;2022-09-12T07:33:39;19.90;99.90
23579;DHT22;11967;50.852;4.400;2022-09-12T07:36:13;19.90;99.90
23579;DHT22;11967;50.852;4.400;2022-09-12T07:38:39;19.90;99.90
23579;DHT22;11967;50.852;4.400;2022-09-12T07:41:19;19.90;99.90
23579;DHT22;11967;50.852;4.400;2022-09-12T07:43:46;19.90;99.90
23579;DHT22;11967;50.852;4.400;2022-09-12T07:46:12;20.00;99.90
23579;DHT22;11967;50.852;4.400;2022-09-12T07:48:39;20.00;99.90
23579;DHT22;11967;50.852;4.400;2022-09-12T07:51:07;20.20;99.90
23579;DHT22;11967;50.852;4.400;2022-09-12T07:53:35;20.20;99.90
23579;DHT22;11967;50.852;4.400;2022-09-12T07:56:02;20.20;99.90
23579;DHT22;11967;50.852;4.400;2022-09-12T07:58:29;20.30;99.90
23579;DHT22;11967;50.852;4.400;2022-09-12T08:01:11;20.40;99.90
23579;DHT22;11967;50.852;4.400;2022-09-12T08:03:41;20.40;99.90
23579;DHT22;11967;50.852;4.400;2022-09-12T08:06:09;20.50;99.90
23579;DHT22;11967;50.852;4.400;2022-09-12T08:08:36;20.50;99.90
23579;DHT22;11967;50.852;4.400;2022-09-12T08:11:05;20.60;99.90
23579;DHT22;11967;50.852;4.400;2022-09-12T08:13:32;20.60;99.90
23579;DHT22;11967;50.852;4.400;2022-09-12T08:16:00;20.50;99.90
23579;DHT22;11967;50.852;4.400;2022-09-12T08:18:27;20.50;99.90
23579;DHT22;11967;50.852;4.400;2022-09-12T08:21:03;20.50;99.90
23579;DHT22;11967;50.852;4.400;2022-09-12T08:23:30;20.60;99.90
23579;DHT22;11967;50.852;4.400;2022-09-12T08:26:00;20.70;99.90
23579;DHT22;11967;50.852;4.400;2022-09-12T08:28:28;20.70;99.90
23579;DHT22;11967;50.852;4.400;2022-09-12T08:30:58;20.70;99.90
23579;DHT22;11967;50.852;4.400;2022-09-12T08:33:24;20.80;99.90
23579;DHT22;11967;50.852;4.400;2022-09-12T08:35:51;20.80;99.90
23579;DHT22;11967;50.852;4.400;2022-09-12T08:38:17;20.90;99.90
23579;DHT22;11967;50.852;4.400;2022-09-12T08:41:00;20.90;99.90
23579;DHT22;11967;50.852;4.400;2022-09-12T08:46:31;20.90;99.90
23579;DHT22;11967;50.852;4.400;2022-09-12T08:49:01;21.00;99.90
23579;DHT22;11967;50.852;4.400;2022-09-12T08:51:31;21.10;99.90
23579;DHT22;11967;50.852;4.400;2022-09-12T08:54:00;21.10;99.90
23579;DHT22;11967;50.852;4.400;2022-09-12T08:56:28;21.10;99.90
23579;DHT22;11967;50.852;4.400;2022-09-12T08:58:56;21.20;99.90
23579;DHT22;11967;50.852;4.400;2022-09-12T09:01:39;21.20;99.90
23579;DHT22;11967;50.852;4.400;2022-09-12T09:18:43;21.50;99.90
23579;DHT22;11967;50.852;4.400;2022-09-12T09:21:30;21.60;99.90
23579;DHT22;11967;50.852;4.400;2022-09-12T09:24:07;21.70;99.90
23579;DHT22;11967;50.852;4.400;2022-09-12T09:29:21;21.80;99.90
23579;DHT22;11967;50.852;4.400;2022-09-12T09:31:51;21.90;99.90
23579;DHT22;11967;50.852;4.400;2022-09-12T09:34:20;22.10;99.90
23579;DHT22;11967;50.852;4.400;2022-09-12T09:39:55;22.10;99.90
23579;DHT22;11967;50.852;4.400;2022-09-12T09:45:10;22.30;99.90
23579;DHT22;11967;50.852;4.400;2022-09-12T09:47:37;22.50;99.90
23579;DHT22;11967;50.852;4.400;2022-09-12T09:50:03;22.50;99.90
23579;DHT22;11967;50.852;4.400;2022-09-12T09:52:29;22.60;99.90
23579;DHT22;11967;50.852;4.400;2022-09-12T09:54:59;22.70;99.90
23579;DHT22;11967;50.852;4.400;2022-09-12T10:00:26;22.80;99.90
23579;DHT22;11967;50.852;4.400;2022-09-12T10:05:47;23.00;99.90
23579;DHT22;11967;50.852;4.400;2022-09-12T10:13:56;23.30;99.90
23579;DHT22;11967;50.852;4.400;2022-09-12T10:16:26;23.30;99.90
23579;DHT22;11967;50.852;4.400;2022-09-12T10:18:53;23.30;99.90
23579;DHT22;11967;50.852;4.400;2022-09-12T10:21:46;23.40;99.90
23579;DHT22;11967;50.852;4.400;2022-09-12T10:26:50;23.50;99.90
23579;DHT22;11967;50.852;4.400;2022-09-12T10:29:24;23.60;99.90
23579;DHT22;11967;50.852;4.400;2022-09-12T10:31:54;23.70;99.90
23579;DHT22;11967;50.852;4.400;2022-09-12T10:34:21;23.80;99.90
23579;DHT22;11967;50.852;4.400;2022-09-12T10:36:48;23.80;99.90
23579;DHT22;11967;50.852;4.400;2022-09-12T10:39:17;23.80;99.90
23579;DHT22;11967;50.852;4.400;2022-09-12T10:41:43;23.80;99.90
23579;DHT22;11967;50.852;4.400;2022-09-12T10:44:31;23.80;99.90
23579;DHT22;11967;50.852;4.400;2022-09-12T10:46:58;23.90;99.90
23579;DHT22;11967;50.852;4.400;2022-09-12T10:49:29;23.90;99.90
23579;DHT22;11967;50.852;4.400;2022-09-12T10:51:57;24.00;99.90
23579;DHT22;11967;50.852;4.400;2022-09-12T10:54:40;24.00;99.90
23579;DHT22;11967;50.852;4.400;2022-09-12T10:57:19;24.10;99.90
23579;DHT22;11967;50.852;4.400;2022-09-12T11:02:27;24.20;99.90
23579;DHT22;11967;50.852;4.400;2022-09-12T11:05:10;24.30;99.90
23579;DHT22;11967;50.852;4.400;2022-09-12T11:07:58;24.30;99.90
23579;DHT22;11967;50.852;4.400;2022-09-12T11:10:41;24.40;99.90
23579;DHT22;11967;50.852;4.400;2022-09-12T11:29:28;24.80;99.90
23579;DHT22;11967;50.852;4.400;2022-09-12T11:40:36;25.00;99.90
23579;DHT22;11967;50.852;4.400;2022-09-12T11:45:46;25.00;99.90
23579;DHT22;11967;50.852;4.400;2022-09-12T11:48:24;25.10;99.90
23579;DHT22;11967;50.852;4.400;2022-09-12T11:50:56;25.20;99.90
23579;DHT22;11967;50.852;4.400;2022-09-12T11:53:26;25.20;99.90
23579;DHT22;11967;50.852;4.400;2022-09-12T11:56:18;25.30;99.90
23579;DHT22;11967;50.852;4.400;2022-09-12T11:58:50;25.30;99.90
23579;DHT22;11967;50.852;4.400;2022-09-12T12:01:25;25.40;99.90
23579;DHT22;11967;50.852;4.400;2022-09-12T12:03:52;25.40;99.90
23579;DHT22;11967;50.852;4.400;2022-09-12T12:06:30;25.40;99.90
23579;DHT22;11967;50.852;4.400;2022-09-12T12:08:56;25.40;99.90
23579;DHT22;11967;50.852;4.400;2022-09-12T12:11:29;25.40;99.90
23579;DHT22;11967;50.852;4.400;2022-09-12T12:14:01;25.50;99.90
23579;DHT22;11967;50.852;4.400;2022-09-12T12:16:31;25.60;99.90
23579;DHT22;11967;50.852;4.400;2022-09-12T12:19:03;25.80;99.90
23579;DHT22;11967;50.852;4.400;2022-09-12T12:21:33;25.80;99.90
23579;DHT22;11967;50.852;4.400;2022-09-12T12:26:56;25.80;99.90
23579;DHT22;11967;50.852;4.400;2022-09-12T12:34:41;25.60;99.90
23579;DHT22;11967;50.852;4.400;2022-09-12T12:47:51;25.70;99.90
23579;DHT22;11967;50.852;4.400;2022-09-12T12:50:22;25.70;99.90
23579;DHT22;11967;50.852;4.400;2022-09-12T12:53:00;25.80;99.90
23579;DHT22;11967;50.852;4.400;2022-09-12T12:55:44;26.00;99.90
23579;DHT22;11967;50.852;4.400;2022-09-12T13:01:15;25.90;99.90
23579;DHT22;11967;50.852;4.400;2022-09-12T13:03:55;25.90;99.90
23579;DHT22;11967;50.852;4.400;2022-09-12T13:06:33;25.90;99.90
23579;DHT22;11967;50.852;4.400;2022-09-12T13:09:18;26.10;99.90
23579;DHT22;11967;50.852;4.400;2022-09-12T13:11:45;26.00;99.90
23579;DHT22;11967;50.852;4.400;2022-09-12T13:17:00;25.90;99.90
23579;DHT22;11967;50.852;4.400;2022-09-12T13:19:29;25.90;99.90
23579;DHT22;11967;50.852;4.400;2022-09-12T13:22:02;25.80;99.90
23579;DHT22;11967;50.852;4.400;2022-09-12T13:24:28;25.90;99.90
23579;DHT22;11967;50.852;4.400;2022-09-12T13:26:54;25.90;99.90
23579;DHT22;11967;50.852;4.400;2022-09-12T13:29:24;25.90;99.90
23579;DHT22;11967;50.852;4.400;2022-09-12T13:32:00;25.90;99.90
23579;DHT22;11967;50.852;4.400;2022-09-12T13:34:33;26.00;99.90
23579;DHT22;11967;50.852;4.400;2022-09-12T13:42:46;26.10;99.90
23579;DHT22;11967;50.852;4.400;2022-09-12T13:45:24;26.00;99.60
23579;DHT22;11967;50.852;4.400;2022-09-12T13:47:56;26.10;99.70
23579;DHT22;11967;50.852;4.400;2022-09-12T13:50:26;26.00;99.70
23579;DHT22;11967;50.852;4.400;2022-09-12T13:52:55;26.00;99.90
23579;DHT22;11967;50.852;4.400;2022-09-12T13:55:28;26.10;99.50
23579;DHT22;11967;50.852;4.400;2022-09-12T13:57:58;26.10;99.10
23579;DHT22;11967;50.852;4.400;2022-09-12T14:00:24;26.10;99.20
23579;DHT22;11967;50.852;4.400;2022-09-12T14:02:50;26.10;99.00
23579;DHT22;11967;50.852;4.400;2022-09-12T14:05:37;26.10;98.90
23579;DHT22;11967;50.852;4.400;2022-09-12T14:08:07;26.10;99.20
23579;DHT22;11967;50.852;4.400;2022-09-12T14:10:42;26.00;99.30
23579;DHT22;11967;50.852;4.400;2022-09-12T14:13:23;26.10;99.10
23579;DHT22;11967;50.852;4.400;2022-09-12T14:15:51;26.10;98.80
23579;DHT22;11967;50.852;4.400;2022-09-12T14:18:28;26.20;98.60
23579;DHT22;11967;50.852;4.400;2022-09-12T14:20:58;26.20;98.70
23579;DHT22;11967;50.852;4.400;2022-09-12T14:23:31;26.20;98.70
23579;DHT22;11967;50.852;4.400;2022-09-12T14:26:00;26.20;98.70
23579;DHT22;11967;50.852;4.400;2022-09-12T14:28:28;26.30;98.50
23579;DHT22;11967;50.852;4.400;2022-09-12T14:31:03;26.30;98.20
23579;DHT22;11967;50.852;4.400;2022-09-12T14:33:55;26.30;98.00
23579;DHT22;11967;50.852;4.400;2022-09-12T14:36:45;26.30;97.80
23579;DHT22;11967;50.852;4.400;2022-09-12T14:41:58;26.30;97.80
23579;DHT22;11967;50.852;4.400;2022-09-12T14:44:26;26.30;98.00
23579;DHT22;11967;50.852;4.400;2022-09-12T14:46:52;26.20;97.60
23579;DHT22;11967;50.852;4.400;2022-09-12T14:49:19;26.20;97.50
23579;DHT22;11967;50.852;4.400;2022-09-12T14:51:56;26.40;96.80
23579;DHT22;11967;50.852;4.400;2022-09-12T14:57:00;26.30;96.50
23579;DHT22;11967;50.852;4.400;2022-09-12T15:04:43;26.40;96.40
23579;DHT22;11967;50.852;4.400;2022-09-12T15:09:48;26.40;96.40
23579;DHT22;11967;50.852;4.400;2022-09-12T15:12:14;26.40;96.30
23579;DHT22;11967;50.852;4.400;2022-09-12T15:14:39;26.50;96.40
23579;DHT22;11967;50.852;4.400;2022-09-12T15:17:05;26.50;96.30
23579;DHT22;11967;50.852;4.400;2022-09-12T15:19:30;26.50;96.20
23579;DHT22;11967;50.852;4.400;2022-09-12T15:21:56;26.50;95.70
23579;DHT22;11967;50.852;4.400;2022-09-12T15:24:22;26.50;95.80
23579;DHT22;11967;50.852;4.400;2022-09-12T15:26:48;26.50;95.40
23579;DHT22;11967;50.852;4.400;2022-09-12T15:29:14;26.50;95.20
23579;DHT22;11967;50.852;4.400;2022-09-12T15:31:39;26.50;95.30
23579;DHT22;11967;50.852;4.400;2022-09-12T15:34:05;26.50;95.50
23579;DHT22;11967;50.852;4.400;2022-09-12T15:36:31;26.40;94.80
23579;DHT22;11967;50.852;4.400;2022-09-12T15:38:57;26.40;94.90
23579;DHT22;11967;50.852;4.400;2022-09-12T15:41:33;26.40;94.80
23579;DHT22;11967;50.852;4.400;2022-09-12T15:44:02;26.40;94.90
23579;DHT22;11967;50.852;4.400;2022-09-12T15:46:28;26.30;95.10
23579;DHT22;11967;50.852;4.400;2022-09-12T15:48:54;26.30;95.70
23579;DHT22;11967;50.852;4.400;2022-09-12T15:51:20;26.40;95.20
23579;DHT22;11967;50.852;4.400;2022-09-12T15:53:47;26.40;95.10
23579;DHT22;11967;50.852;4.400;2022-09-12T15:56:19;26.50;94.90
23579;DHT22;11967;50.852;4.400;2022-09-12T15:58:45;26.50;94.60
23579;DHT22;11967;50.852;4.400;2022-09-12T16:01:13;26.40;94.20
23579;DHT22;11967;50.852;4.400;2022-09-12T16:03:39;26.40;94.10
23579;DHT22;11967;50.852;4.400;2022-09-12T16:06:05;26.40;94.30
23579;DHT22;11967;50.852;4.400;2022-09-12T16:08:33;26.50;94.30
23579;DHT22;11967;50.852;4.400;2022-09-12T16:11:12;26.40;94.40
23579;DHT22;11967;50.852;4.400;2022-09-12T16:13:40;26.40;94.20
23579;DHT22;11967;50.852;4.400;2022-09-12T16:16:07;26.20;94.60
23579;DHT22;11967;50.852;4.400;2022-09-12T16:18:33;26.30;94.70
23579;DHT22;11967;50.852;4.400;2022-09-12T16:20:59;26.30;94.70
23579;DHT22;11967;50.852;4.400;2022-09-12T16:23:24;26.20;94.70
23579;DHT22;11967;50.852;4.400;2022-09-12T16:25:58;26.20;95.10
23579;DHT22;11967;50.852;4.400;2022-09-12T16:28:23;26.20;95.10
23579;DHT22;11967;50.852;4.400;2022-09-12T16:30:56;26.20;95.00
23579;DHT22;11967;50.852;4.400;2022-09-12T16:33:24;26.10;95.20
23579;DHT22;11967;50.852;4.400;2022-09-12T16:35:50;26.10;95.20
23579;DHT22;11967;50.852;4.400;2022-09-12T16:38:20;26.10;95.40
23579;DHT22;11967;50.852;4.400;2022-09-12T16:40:46;26.10;95.50
23579;DHT22;11967;50.852;4.400;2022-09-12T16:43:12;26.10;95.60
23579;DHT22;11967;50.852;4.400;2022-09-12T16:45:39;26.10;95.70
23579;DHT22;11967;50.852;4.400;2022-09-12T16:48:04;26.10;95.70
23579;DHT22;11967;50.852;4.400;2022-09-12T16:50:30;26.10;96.40
23579;DHT22;11967;50.852;4.400;2022-09-12T16:52:55;26.10;96.20
23579;DHT22;11967;50.852;4.400;2022-09-12T16:55:21;26.00;96.30
23579;DHT22;11967;50.852;4.400;2022-09-12T16:57:47;26.00;96.40
23579;DHT22;11967;50.852;4.400;2022-09-12T17:00:14;26.00;96.30
23579;DHT22;11967;50.852;4.400;2022-09-12T17:02:39;26.00;96.50
23579;DHT22;11967;50.852;4.400;2022-09-12T17:05:05;26.00;96.50
23579;DHT22;11967;50.852;4.400;2022-09-12T17:07:31;26.10;96.60
23579;DHT22;11967;50.852;4.400;2022-09-12T17:09:58;26.00;96.90
23579;DHT22;11967;50.852;4.400;2022-09-12T17:12:24;26.00;97.20
23579;DHT22;11967;50.852;4.400;2022-09-12T17:14:51;26.00;97.40
23579;DHT22;11967;50.852;4.400;2022-09-12T17:17:16;26.00;97.80
23579;DHT22;11967;50.852;4.400;2022-09-12T17:19:42;26.00;97.80
23579;DHT22;11967;50.852;4.400;2022-09-12T17:22:08;26.00;97.40
23579;DHT22;11967;50.852;4.400;2022-09-12T17:24:34;26.00;97.20
23579;DHT22;11967;50.852;4.400;2022-09-12T17:27:00;26.00;97.30
23579;DHT22;11967;50.852;4.400;2022-09-12T17:29:25;25.90;97.40
23579;DHT22;11967;50.852;4.400;2022-09-12T17:31:51;25.90;97.50
23579;DHT22;11967;50.852;4.400;2022-09-12T17:34:19;25.90;97.80
23579;DHT22;11967;50.852;4.400;2022-09-12T17:36:45;25.90;97.90
23579;DHT22;11967;50.852;4.400;2022-09-12T17:39:13;25.80;98.20
23579;DHT22;11967;50.852;4.400;2022-09-12T17:41:40;25.90;98.00
23579;DHT22;11967;50.852;4.400;2022-09-12T17:44:12;25.80;98.60
23579;DHT22;11967;50.852;4.400;2022-09-12T17:46:39;25.80;98.70
23579;DHT22;11967;50.852;4.400;2022-09-12T17:49:14;25.80;98.50
23579;DHT22;11967;50.852;4.400;2022-09-12T17:51:41;25.80;98.50
23579;DHT22;11967;50.852;4.400;2022-09-12T17:54:16;25.70;98.60
23579;DHT22;11967;50.852;4.400;2022-09-12T17:56:43;25.70;98.70
23579;DHT22;11967;50.852;4.400;2022-09-12T17:59:13;25.70;98.80
23579;DHT22;11967;50.852;4.400;2022-09-12T18:01:39;25.70;98.80
23579;DHT22;11967;50.852;4.400;2022-09-12T18:04:24;25.70;99.10
23579;DHT22;11967;50.852;4.400;2022-09-12T18:06:49;25.70;99.20
23579;DHT22;11967;50.852;4.400;2022-09-12T18:09:17;25.70;99.20
23579;DHT22;11967;50.852;4.400;2022-09-12T18:11:44;25.60;99.30